THY6MG EDDF-LTFM
Flight info
| Callsign | THY6MG |
|---|---|
| Flight time | N/A |
| Altitude | 35000 |
| Route | CINDY8S/18 CINDY Z74 HAREM DCT ASLEP DCT TAKUT DCT DINKU L603 BESNI L605 MIQ DCT ALUTU DCT BIBAG L605 ESEGA DCT VELOM DCT GOTAR DCT BABIT DCT ESIRI DCT ETIDA T390 RILEX RILEX1A/35R |
| Aircraft | A321/M-SDE3FGHIRWY/LB1 |
Departure
| Time | N/A |
|---|---|
| Airport | Frankfurt Main Airport (EDDF) |
Arrival
| Time | 2026-05-03 20:47 |
|---|---|
| Airport | İstanbul Airport (LTFM) |
| Time | Latitude | Longitude | Altitude | Speed | Heading |
|---|---|---|---|---|---|
| 2026-05-03 20:15 | 42.08204 | 26.50378 | 33236 ft | 438 kts | 118° |
| 2026-05-03 20:15 | 42.06519 | 26.53790 | 32971 ft | 438 kts | 126° |
| 2026-05-03 20:15 | 42.04662 | 26.57040 | 32733 ft | 438 kts | 126° |
| 2026-05-03 20:15 | 42.02810 | 26.60277 | 32484 ft | 437 kts | 126° |
| 2026-05-03 20:16 | 42.00931 | 26.63551 | 32229 ft | 436 kts | 126° |
| 2026-05-03 20:16 | 41.99081 | 26.66771 | 31972 ft | 434 kts | 127° |
| 2026-05-03 20:16 | 41.97241 | 26.69975 | 31729 ft | 433 kts | 127° |
| 2026-05-03 20:16 | 41.95408 | 26.73166 | 31477 ft | 430 kts | 127° |
| 2026-05-03 20:17 | 41.93611 | 26.76291 | 31230 ft | 426 kts | 128° |
| 2026-05-03 20:17 | 41.91803 | 26.79429 | 30981 ft | 422 kts | 128° |
| 2026-05-03 20:17 | 41.90013 | 26.82525 | 30736 ft | 418 kts | 128° |
| 2026-05-03 20:17 | 41.88238 | 26.85593 | 30479 ft | 413 kts | 128° |
| 2026-05-03 20:18 | 41.86471 | 26.88655 | 30034 ft | 407 kts | 129° |
| 2026-05-03 20:18 | 41.84770 | 26.91605 | 29527 ft | 403 kts | 129° |
| 2026-05-03 20:18 | 41.83059 | 26.94561 | 29027 ft | 399 kts | 130° |
| 2026-05-03 20:18 | 41.81366 | 26.97485 | 28535 ft | 395 kts | 130° |
| 2026-05-03 20:19 | 41.79686 | 27.00373 | 28042 ft | 391 kts | 130° |
| 2026-05-03 20:19 | 41.78024 | 27.03226 | 27558 ft | 387 kts | 130° |
| 2026-05-03 20:19 | 41.76380 | 27.06061 | 27077 ft | 383 kts | 130° |
| 2026-05-03 20:19 | 41.74755 | 27.08864 | 26612 ft | 379 kts | 130° |
| 2026-05-03 20:20 | 41.73142 | 27.11640 | 26138 ft | 376 kts | 130° |
| 2026-05-03 20:20 | 41.71545 | 27.14381 | 25674 ft | 372 kts | 130° |
| 2026-05-03 20:20 | 41.69956 | 27.17107 | 25213 ft | 370 kts | 130° |
| 2026-05-03 20:20 | 41.68372 | 27.19808 | 24760 ft | 368 kts | 130° |
| 2026-05-03 20:21 | 41.66791 | 27.22502 | 24322 ft | 367 kts | 130° |
| 2026-05-03 20:21 | 41.65225 | 27.25175 | 23890 ft | 365 kts | 130° |
| 2026-05-03 20:21 | 41.63666 | 27.27840 | 23466 ft | 362 kts | 129° |
| 2026-05-03 20:21 | 41.62119 | 27.30483 | 23050 ft | 360 kts | 129° |
| 2026-05-03 20:22 | 41.60583 | 27.33100 | 22636 ft | 357 kts | 128° |
| 2026-05-03 20:22 | 41.59056 | 27.35700 | 22210 ft | 354 kts | 128° |
| 2026-05-03 20:22 | 41.57541 | 27.38281 | 21827 ft | 352 kts | 128° |
| 2026-05-03 20:22 | 41.56030 | 27.40851 | 21427 ft | 351 kts | 127° |
| 2026-05-03 20:23 | 41.54525 | 27.43405 | 21035 ft | 349 kts | 127° |
| 2026-05-03 20:23 | 41.53028 | 27.45945 | 20633 ft | 347 kts | 127° |
| 2026-05-03 20:23 | 41.51535 | 27.48475 | 20230 ft | 346 kts | 126° |
| 2026-05-03 20:23 | 41.50048 | 27.50990 | 19805 ft | 344 kts | 126° |
| 2026-05-03 20:24 | 41.48572 | 27.53493 | 19387 ft | 343 kts | 126° |
| 2026-05-03 20:24 | 41.47102 | 27.55981 | 18967 ft | 342 kts | 125° |
| 2026-05-03 20:24 | 41.45589 | 27.58546 | 18535 ft | 362 kts | 125° |
| 2026-05-03 20:24 | 41.44020 | 27.61204 | 18065 ft | 367 kts | 124° |
| 2026-05-03 20:25 | 41.42441 | 27.63867 | 17599 ft | 366 kts | 124° |
| 2026-05-03 20:25 | 41.40868 | 27.66522 | 17117 ft | 364 kts | 124° |
| 2026-05-03 20:25 | 41.39302 | 27.69160 | 16647 ft | 362 kts | 124° |
| 2026-05-03 20:25 | 41.37725 | 27.71817 | 16157 ft | 368 kts | 123° |
| 2026-05-03 20:26 | 41.36135 | 27.74495 | 15683 ft | 369 kts | 123° |
| 2026-05-03 20:26 | 41.34548 | 27.77165 | 15195 ft | 366 kts | 123° |
| 2026-05-03 20:26 | 41.32967 | 27.79812 | 14712 ft | 364 kts | 122° |
| 2026-05-03 20:26 | 41.31396 | 27.82436 | 14226 ft | 361 kts | 122° |
| 2026-05-03 20:27 | 41.29837 | 27.85041 | 13748 ft | 359 kts | 122° |
| 2026-05-03 20:27 | 41.28292 | 27.87628 | 13269 ft | 356 kts | 121° |
| 2026-05-03 20:27 | 41.26754 | 27.90203 | 12793 ft | 354 kts | 121° |
| 2026-05-03 20:27 | 41.25228 | 27.92756 | 12312 ft | 351 kts | 121° |
| 2026-05-03 20:28 | 41.23714 | 27.95285 | 11825 ft | 349 kts | 120° |
| 2026-05-03 20:28 | 41.22203 | 27.97806 | 11346 ft | 348 kts | 120° |
| 2026-05-03 20:28 | 41.20701 | 28.00315 | 10880 ft | 347 kts | 119° |
| 2026-05-03 20:28 | 41.19204 | 28.02813 | 10491 ft | 343 kts | 118° |
| 2026-05-03 20:29 | 41.17737 | 28.05245 | 10404 ft | 331 kts | 118° |
| 2026-05-03 20:29 | 41.16319 | 28.07579 | 10271 ft | 317 kts | 118° |
| 2026-05-03 20:29 | 41.14958 | 28.09821 | 10112 ft | 308 kts | 116° |
| 2026-05-03 20:29 | 41.13618 | 28.12054 | 10014 ft | 310 kts | 116° |
| 2026-05-03 20:30 | 41.12265 | 28.14323 | 9507 ft | 315 kts | 116° |
| 2026-05-03 20:30 | 41.10918 | 28.16574 | 9138 ft | 309 kts | 116° |
| 2026-05-03 20:30 | 41.09618 | 28.18704 | 8866 ft | 287 kts | 115° |
| 2026-05-03 20:30 | 41.08390 | 28.20703 | 8496 ft | 276 kts | 114° |
| 2026-05-03 20:31 | 41.07190 | 28.22690 | 8122 ft | 276 kts | 114° |
| 2026-05-03 20:31 | 41.05997 | 28.24682 | 7744 ft | 276 kts | 114° |
| 2026-05-03 20:31 | 41.04804 | 28.26674 | 7371 ft | 276 kts | 114° |
| 2026-05-03 20:31 | 41.03607 | 28.28667 | 6991 ft | 277 kts | 114° |
| 2026-05-03 20:32 | 41.02405 | 28.30663 | 6617 ft | 278 kts | 114° |
| 2026-05-03 20:32 | 41.01198 | 28.32660 | 6244 ft | 278 kts | 114° |
| 2026-05-03 20:32 | 40.99987 | 28.34660 | 5873 ft | 278 kts | 114° |
| 2026-05-03 20:32 | 40.98777 | 28.36654 | 5493 ft | 278 kts | 114° |
| 2026-05-03 20:33 | 40.97579 | 28.38672 | 5121 ft | 275 kts | 109° |
| 2026-05-03 20:33 | 40.96665 | 28.40775 | 4993 ft | 257 kts | 104° |
| 2026-05-03 20:33 | 40.95797 | 28.42770 | 4999 ft | 243 kts | 105° |
| 2026-05-03 20:33 | 40.94963 | 28.44657 | 4998 ft | 235 kts | 104° |
| 2026-05-03 20:34 | 40.94150 | 28.46524 | 4997 ft | 234 kts | 103° |
| 2026-05-03 20:34 | 40.93346 | 28.48392 | 4990 ft | 233 kts | 103° |
| 2026-05-03 20:34 | 40.92544 | 28.50260 | 4988 ft | 233 kts | 103° |
| 2026-05-03 20:34 | 40.91745 | 28.52126 | 4988 ft | 234 kts | 103° |
| 2026-05-03 20:35 | 40.90941 | 28.53995 | 4988 ft | 234 kts | 103° |
| 2026-05-03 20:35 | 40.90138 | 28.55861 | 4987 ft | 233 kts | 102° |
| 2026-05-03 20:35 | 40.89584 | 28.57770 | 4988 ft | 213 kts | 85° |
| 2026-05-03 20:35 | 40.89491 | 28.59639 | 4989 ft | 197 kts | 70° |
| 2026-05-03 20:36 | 40.89769 | 28.61346 | 4988 ft | 185 kts | 58° |
| 2026-05-03 20:36 | 40.90196 | 28.62952 | 4987 ft | 186 kts | 59° |
| 2026-05-03 20:36 | 40.90618 | 28.64566 | 4987 ft | 187 kts | 58° |
| 2026-05-03 20:36 | 40.91042 | 28.66190 | 4983 ft | 187 kts | 59° |
| 2026-05-03 20:37 | 40.91472 | 28.67815 | 4979 ft | 185 kts | 55° |
| 2026-05-03 20:37 | 40.92161 | 28.69171 | 4980 ft | 174 kts | 38° |
| 2026-05-03 20:37 | 40.93128 | 28.70055 | 4997 ft | 164 kts | 26° |
| 2026-05-03 20:37 | 40.94116 | 28.70771 | 4983 ft | 161 kts | 26° |
| 2026-05-03 20:38 | 40.95083 | 28.71478 | 4980 ft | 160 kts | 27° |
| 2026-05-03 20:38 | 40.96073 | 28.72205 | 4980 ft | 161 kts | 27° |
| 2026-05-03 20:38 | 40.97039 | 28.72910 | 4978 ft | 161 kts | 25° |
| 2026-05-03 20:38 | 40.98137 | 28.73200 | 4983 ft | 162 kts | 5° |
| 2026-05-03 20:39 | 40.99240 | 28.73235 | 4986 ft | 160 kts | 7° |
| 2026-05-03 20:39 | 41.00349 | 28.73250 | 4983 ft | 160 kts | 6° |
| 2026-05-03 20:39 | 41.01462 | 28.73244 | 4966 ft | 160 kts | 5° |
| 2026-05-03 20:39 | 41.02576 | 28.73228 | 4841 ft | 160 kts | 5° |
| 2026-05-03 20:40 | 41.03671 | 28.73210 | 4675 ft | 153 kts | 5° |
| 2026-05-03 20:40 | 41.04698 | 28.73189 | 4482 ft | 144 kts | 6° |
| 2026-05-03 20:40 | 41.05695 | 28.73171 | 4292 ft | 144 kts | 6° |
| 2026-05-03 20:40 | 41.06691 | 28.73152 | 4097 ft | 143 kts | 6° |
| 2026-05-03 20:41 | 41.07690 | 28.73133 | 3911 ft | 143 kts | 5° |
| 2026-05-03 20:41 | 41.08676 | 28.73114 | 3718 ft | 142 kts | 6° |
| 2026-05-03 20:41 | 41.09631 | 28.73095 | 3535 ft | 134 kts | 6° |
| 2026-05-03 20:41 | 41.10558 | 28.73077 | 3362 ft | 130 kts | 5° |
| 2026-05-03 20:42 | 41.11470 | 28.73060 | 3185 ft | 131 kts | 6° |
| 2026-05-03 20:42 | 41.12369 | 28.73043 | 3017 ft | 131 kts | 5° |
| 2026-05-03 20:42 | 41.13276 | 28.73026 | 2839 ft | 130 kts | 5° |
| 2026-05-03 20:42 | 41.14185 | 28.73008 | 2677 ft | 131 kts | 5° |
| 2026-05-03 20:43 | 41.15096 | 28.72991 | 2486 ft | 132 kts | 5° |
| 2026-05-03 20:43 | 41.16008 | 28.72972 | 2322 ft | 122 kts | 5° |
| 2026-05-03 20:43 | 41.16814 | 28.72956 | 2157 ft | 115 kts | 5° |
| 2026-05-03 20:43 | 41.17624 | 28.72942 | 2029 ft | 119 kts | 5° |
| 2026-05-03 20:44 | 41.18477 | 28.72927 | 1856 ft | 125 kts | 5° |
| 2026-05-03 20:44 | 41.19346 | 28.72911 | 1683 ft | 125 kts | 5° |
| 2026-05-03 20:44 | 41.20219 | 28.72891 | 1512 ft | 124 kts | 5° |
| 2026-05-03 20:44 | 41.21094 | 28.72878 | 1355 ft | 126 kts | 6° |
| 2026-05-03 20:45 | 41.21967 | 28.72880 | 1207 ft | 126 kts | 5° |
| 2026-05-03 20:45 | 41.22853 | 28.72834 | 1000 ft | 127 kts | 3° |
| 2026-05-03 20:45 | 41.23725 | 28.72815 | 846 ft | 124 kts | 4° |
| 2026-05-03 20:45 | 41.24589 | 28.72804 | 692 ft | 124 kts | 3° |
| 2026-05-03 20:46 | 41.25453 | 28.72787 | 508 ft | 125 kts | 4° |
| 2026-05-03 20:46 | 41.26325 | 28.72765 | 371 ft | 125 kts | 3° |
| 2026-05-03 20:46 | 41.27116 | 28.72754 | 334 ft | 98 kts | 1° |
| 2026-05-03 20:46 | 41.27648 | 28.72746 | 334 ft | 52 kts | 359° |
| 2026-05-03 20:47 | 41.27876 | 28.72752 | 334 ft | 25 kts | 11° |
| 2026-05-03 20:47 | 41.28031 | 28.72807 | 334 ft | 21 kts | 27° |
| 2026-05-03 20:47 | 41.28097 | 28.72856 | 334 ft | 10 kts | 30° |
| 2026-05-03 20:47 | 41.28135 | 28.72922 | 334 ft | 10 kts | 101° |
| 2026-05-03 20:48 | 41.28074 | 28.72961 | 334 ft | 11 kts | 178° |
| 2026-05-03 20:48 | 41.27980 | 28.72963 | 332 ft | 16 kts | 179° |
| 2026-05-03 20:48 | 41.27864 | 28.72966 | 334 ft | 17 kts | 179° |
| 2026-05-03 20:48 | 41.27740 | 28.72969 | 334 ft | 18 kts | 179° |
| 2026-05-03 20:49 | 41.27607 | 28.72972 | 334 ft | 20 kts | 179° |
| 2026-05-03 20:49 | 41.27467 | 28.72976 | 334 ft | 21 kts | 179° |
| 2026-05-03 20:49 | 41.27337 | 28.72978 | 334 ft | 18 kts | 179° |
| 2026-05-03 20:49 | 41.27205 | 28.72981 | 334 ft | 19 kts | 179° |
| 2026-05-03 20:50 | 41.27090 | 28.72984 | 334 ft | 17 kts | 179° |
| 2026-05-03 20:50 | 41.26990 | 28.72986 | 334 ft | 15 kts | 179° |
| 2026-05-03 20:50 | 41.26898 | 28.72990 | 334 ft | 11 kts | 171° |
| 2026-05-03 20:50 | 41.26865 | 28.73072 | 334 ft | 11 kts | 91° |
| 2026-05-03 20:51 | 41.26867 | 28.73184 | 334 ft | 13 kts | 89° |
| 2026-05-03 20:51 | 41.26869 | 28.73311 | 334 ft | 15 kts | 89° |
| 2026-05-03 20:51 | 41.26870 | 28.73419 | 334 ft | 8 kts | 89° |
| 2026-05-03 20:51 | 41.26870 | 28.73496 | 334 ft | 8 kts | 90° |
| 2026-05-03 20:52 | 41.26843 | 28.73525 | 334 ft | 6 kts | 174° |
| 2026-05-03 20:52 | 41.26800 | 28.73528 | 334 ft | 5 kts | 178° |
| 2026-05-03 20:52 | 41.26779 | 28.73528 | 334 ft | 1 kts | 178° |
| 2026-05-03 20:52 | 41.26776 | 28.73529 | 334 ft | 0 kts | 178° |